Time;durP1;ratioP1;P1;durP2;ratioP2;P2;SDS_P1;SDS_P2;PMS_P1;PMS_P2;Temp;Humidity;BMP_temperature;BMP_pressure;BME280_temperature;BME280_humidity;BME280_pressure;Samples;Min_cycle;Max_cycle;Signal;HPM_P1;HPM_P2
2022/09/27 00:00:32;;;;;;;0.10;0.10;;;;;;;;;;5039058;28;20495;-69
2022/09/27 00:03:01;;;;;;;0.10;0.10;;;;;;;;;;5069117;28;20208;-69
2022/09/27 00:05:28;;;;;;;0.10;0.10;;;;;;;;;;5038574;28;20289;-69
2022/09/27 00:07:54;;;;;;;0.10;0.10;;;;;;;;;;5068962;28;20264;-69
2022/09/27 00:10:22;;;;;;;0.10;0.10;;;;;;;;;;5037127;28;20223;-69
2022/09/27 00:12:48;;;;;;;0.10;0.10;;;;;;;;;;5070562;28;20199;-68
2022/09/27 00:15:15;;;;;;;0.10;0.10;;;;;;;;;;5035731;28;20255;-70
2022/09/27 00:17:42;;;;;;;0.10;0.10;;;;;;;;;;5071663;28;20258;-69
2022/09/27 00:20:09;;;;;;;0.10;0.10;;;;;;;;;;5033746;28;20278;-69
2022/09/27 00:22:36;;;;;;;0.10;0.10;;;;;;;;;;5073617;28;20461;-69
2022/09/27 00:25:04;;;;;;;0.10;0.10;;;;;;;;;;5042768;28;20243;-69
2022/09/27 00:27:32;;;;;;;0.10;0.10;;;;;;;;;;5031481;28;20225;-70
2022/09/27 00:29:58;;;;;;;0.10;0.10;;;;;;;;;;5042908;28;20400;-69
2022/09/27 00:32:24;;;;;;;0.10;0.10;;;;;;;;;;5064600;28;20555;-68
2022/09/27 00:34:51;;;;;;;0.10;0.10;;;;;;;;;;5042586;28;20246;-69
2022/09/27 00:37:17;;;;;;;0.10;0.10;;;;;;;;;;5064645;28;20250;-70
2022/09/27 00:39:43;;;;;;;0.10;0.10;;;;;;;;;;5042904;28;20226;-70
2022/09/27 00:42:10;;;;;;;0.10;0.10;;;;;;;;;;5064552;28;20308;-68
2022/09/27 00:44:54;;;;;;;0.10;0.10;;;;;;;;;;5042409;28;20226;-70
2022/09/27 00:47:23;;;;;;;0.10;0.10;;;;;;;;;;5064471;28;20586;-69
2022/09/27 00:49:51;;;;;;;0.10;0.10;;;;;;;;;;5042557;28;20386;-75
2022/09/27 00:52:21;;;;;;;0.10;0.10;;;;;;;;;;5064317;28;20253;-76
2022/09/27 00:54:53;;;;;;;0.10;0.10;;;;;;;;;;5041921;28;20239;-74
2022/09/27 00:57:22;;;;;;;0.10;0.10;;;;;;;;;;5064381;28;20244;-76
2022/09/27 00:59:52;;;;;;;0.10;0.10;;;;;;;;;;5042194;28;20450;-76
2022/09/27 01:02:18;;;;;;;0.10;0.10;;;;;;;;;;5064372;28;20262;-76
2022/09/27 01:04:46;;;;;;;0.73;0.73;;;;;;;;;;5042305;28;20271;-75
2022/09/27 01:07:12;;;;;;;0.10;0.10;;;;;;;;;;5064081;28;20295;-76
2022/09/27 01:09:39;;;;;;;0.10;0.10;;;;;;;;;;5074093;28;20278;-76
2022/09/27 01:12:11;;;;;;;0.10;0.10;;;;;;;;;;5064010;28;20485;-75
2022/09/27 01:14:41;;;;;;;0.10;0.10;;;;;;;;;;5041680;28;20216;-75
2022/09/27 01:17:14;;;;;;;0.10;0.10;;;;;;;;;;5063567;28;20250;-76
2022/09/27 01:19:51;;;;;;;0.10;0.10;;;;;;;;;;5042120;28;20284;-75
2022/09/27 01:22:19;;;;;;;0.10;0.10;;;;;;;;;;5064084;28;20326;-76
2022/09/27 01:24:55;;;;;;;0.10;0.10;;;;;;;;;;5042288;28;20201;-74
2022/09/27 01:27:36;;;;;;;0.10;0.10;;;;;;;;;;5064035;28;20288;-77
2022/09/27 01:30:21;;;;;;;0.10;0.10;;;;;;;;;;5038817;28;20223;-76
2022/09/27 01:32:49;;;;;;;0.10;0.10;;;;;;;;;;5041739;28;20195;-75
2022/09/27 01:35:19;;;;;;;0.10;0.10;;;;;;;;;;5034679;28;20565;-74
2022/09/27 01:37:50;;;;;;;0.10;0.10;;;;;;;;;;5069952;28;20200;-76
2022/09/27 01:40:20;;;;;;;0.10;0.10;;;;;;;;;;5034742;28;20229;-76
2022/09/27 01:42:48;;;;;;;0.10;0.10;;;;;;;;;;5070153;28;20218;-77
2022/09/27 01:45:18;;;;;;;0.10;0.10;;;;;;;;;;5034600;28;20202;-77
2022/09/27 01:47:48;;;;;;;0.10;0.10;;;;;;;;;;5069576;28;20209;-76
2022/09/27 01:50:17;;;;;;;0.10;0.10;;;;;;;;;;5034055;28;20208;-76
2022/09/27 01:52:45;;;;;;;0.10;0.10;;;;;;;;;;5070549;28;20194;-75
2022/09/27 01:55:16;;;;;;;0.10;0.10;;;;;;;;;;5033393;28;20563;-75
2022/09/27 01:57:46;;;;;;;0.10;0.10;;;;;;;;;;5070788;28;20411;-76
2022/09/27 02:00:13;;;;;;;0.10;0.10;;;;;;;;;;5033494;28;20237;-75
2022/09/27 02:02:40;;;;;;;0.10;0.10;;;;;;;;;;5071786;28;20383;-76
2022/09/27 02:05:10;;;;;;;0.10;0.10;;;;;;;;;;5032364;28;20201;-75
2022/09/27 02:07:40;;;;;;;0.10;0.10;;;;;;;;;;5072318;28;20210;-74
2022/09/27 02:10:09;;;;;;;0.10;0.10;;;;;;;;;;5031978;28;20519;-76
2022/09/27 02:12:40;;;;;;;0.10;0.10;;;;;;;;;;5072223;28;20275;-76
2022/09/27 02:15:08;;;;;;;0.10;0.10;;;;;;;;;;5032238;28;20237;-75
2022/09/27 02:17:49;;;;;;;0.10;0.10;;;;;;;;;;5072621;28;20205;-76
2022/09/27 02:20:18;;;;;;;0.10;0.10;;;;;;;;;;5034227;28;20192;-76
2022/09/27 02:22:47;;;;;;;0.10;0.10;;;;;;;;;;5069796;28;20239;-76
2022/09/27 02:25:18;;;;;;;0.10;0.10;;;;;;;;;;5033671;28;20279;-75
2022/09/27 02:27:49;;;;;;;0.10;0.10;;;;;;;;;;5072260;28;20199;-75
2022/09/27 02:30:16;;;;;;;0.10;0.10;;;;;;;;;;5037746;28;20272;-75
2022/09/27 02:32:43;;;;;;;0.10;0.10;;;;;;;;;;5073542;28;20208;-76
2022/09/27 02:35:12;;;;;;;0.10;0.10;;;;;;;;;;5035725;28;20230;-74
2022/09/27 02:37:40;;;;;;;0.10;0.10;;;;;;;;;;5074601;28;20489;-76
2022/09/27 02:40:07;;;;;;;0.10;0.10;;;;;;;;;;5035526;28;20204;-75
2022/09/27 02:42:34;;;;;;;0.10;0.10;;;;;;;;;;5076018;28;20402;-75
2022/09/27 02:45:01;;;;;;;0.10;0.10;;;;;;;;;;5044721;28;20206;-76
2022/09/27 02:47:49;;;;;;;0.10;0.10;;;;;;;;;;5066844;28;20308;-76
2022/09/27 02:50:29;;;;;;;0.10;0.10;;;;;;;;;;5037477;28;20226;-76
2022/09/27 02:53:06;;;;;;;0.10;0.10;;;;;;;;;;5070405;28;20225;-76
2022/09/27 02:55:38;;;;;;;0.10;0.10;;;;;;;;;;5041895;28;20412;-75
2022/09/27 02:58:09;;;;;;;0.10;0.10;;;;;;;;;;5067414;28;20236;-76
2022/09/27 03:00:40;;;;;;;0.10;0.10;;;;;;;;;;5042443;28;20285;-75
2022/09/27 03:03:09;;;;;;;0.10;0.10;;;;;;;;;;5066895;28;20450;-76
2022/09/27 03:05:38;;;;;;;0.10;0.10;;;;;;;;;;5042255;28;20298;-74
2022/09/27 03:08:06;;;;;;;0.10;0.10;;;;;;;;;;5067689;28;20278;-76
2022/09/27 03:10:33;;;;;;;0.10;0.10;;;;;;;;;;5041744;28;20417;-75
2022/09/27 03:12:59;;;;;;;0.10;0.10;;;;;;;;;;5068595;28;20208;-76
2022/09/27 03:15:25;;;;;;;0.10;0.10;;;;;;;;;;5039575;28;20261;-76
2022/09/27 03:17:52;;;;;;;0.10;0.10;;;;;;;;;;5070739;28;20211;-76
2022/09/27 03:20:18;;;;;;;0.10;0.10;;;;;;;;;;5037533;28;20412;-75
2022/09/27 03:22:45;;;;;;;0.10;0.10;;;;;;;;;;5072546;28;20194;-75
2022/09/27 03:25:13;;;;;;;0.10;0.10;;;;;;;;;;5035625;28;20205;-75
2022/09/27 03:27:39;;;;;;;0.10;0.10;;;;;;;;;;5073609;28;20399;-75
2022/09/27 03:30:06;;;;;;;0.10;0.10;;;;;;;;;;5068839;28;20245;-76
2022/09/27 03:32:33;;;;;;;0.10;0.10;;;;;;;;;;5075383;28;20229;-74
2022/09/27 03:34:59;;;;;;;0.10;0.10;;;;;;;;;;5043696;28;20232;-76
2022/09/27 03:37:28;;;;;;;0.10;0.10;;;;;;;;;;5065790;28;20307;-75
2022/09/27 03:39:54;;;;;;;0.10;0.10;;;;;;;;;;5042798;28;20208;-75
2022/09/27 03:42:22;;;;;;;0.10;0.10;;;;;;;;;;5065782;28;20242;-76
2022/09/27 03:44:50;;;;;;;0.10;0.10;;;;;;;;;;5043681;28;20201;-76
2022/09/27 03:47:16;;;;;;;0.10;0.10;;;;;;;;;;5065692;28;20265;-75
2022/09/27 03:49:42;;;;;;;0.10;0.10;;;;;;;;;;5043442;28;20209;-76
2022/09/27 03:52:09;;;;;;;0.10;0.10;;;;;;;;;;5065705;28;20249;-76
2022/09/27 03:54:35;;;;;;;0.10;0.10;;;;;;;;;;5043352;28;20254;-75
2022/09/27 03:57:02;;;;;;;0.10;0.10;;;;;;;;;;5062427;28;20575;-76
2022/09/27 03:59:30;;;;;;;0.10;0.10;;;;;;;;;;5045836;28;20250;-76
2022/09/27 04:01:56;;;;;;;0.10;0.10;;;;;;;;;;5060143;28;20242;-75
2022/09/27 04:04:23;;;;;;;0.10;0.10;;;;;;;;;;5048078;28;20373;-75
2022/09/27 04:06:50;;;;;;;0.10;0.10;;;;;;;;;;5059230;28;20242;-75
2022/09/27 04:09:16;;;;;;;0.10;0.10;;;;;;;;;;5048742;28;20211;-75
2022/09/27 04:11:43;;;;;;;0.10;0.10;;;;;;;;;;5058988;28;20245;-75
2022/09/27 04:14:11;;;;;;;0.10;0.10;;;;;;;;;;5048821;28;20281;-75
2022/09/27 04:16:40;;;;;;;0.10;0.10;;;;;;;;;;5057579;28;20439;-76
2022/09/27 04:19:09;;;;;;;0.10;0.10;;;;;;;;;;5050069;28;20297;-76
2022/09/27 04:21:35;;;;;;;0.10;0.10;;;;;;;;;;5056869;28;20375;-75
2022/09/27 04:24:04;;;;;;;0.10;0.10;;;;;;;;;;5050859;28;20221;-76
2022/09/27 04:26:30;;;;;;;0.10;0.10;;;;;;;;;;5055401;28;20371;-75
2022/09/27 04:28:57;;;;;;;0.10;0.10;;;;;;;;;;5052011;28;20384;-76
2022/09/27 04:31:24;;;;;;;0.10;0.10;;;;;;;;;;5053445;28;20661;-76
2022/09/27 04:33:53;;;;;;;0.10;0.10;;;;;;;;;;5053645;28;20428;-75
2022/09/27 04:36:25;;;;;;;0.10;0.10;;;;;;;;;;5052230;28;20239;-76
2022/09/27 04:38:52;;;;;;;0.10;0.10;;;;;;;;;;5053536;28;20220;-76
2022/09/27 04:41:18;;;;;;;0.10;0.10;;;;;;;;;;5067243;28;20238;-76
2022/09/27 04:43:45;;;;;;;0.10;0.10;;;;;;;;;;5048383;28;20214;-75
2022/09/27 04:46:11;;;;;;;0.10;0.10;;;;;;;;;;5049596;28;20235;-75
2022/09/27 04:48:37;;;;;;;0.10;0.10;;;;;;;;;;5057104;28;20212;-75
2022/09/27 04:51:06;;;;;;;0.10;0.10;;;;;;;;;;5047557;28;20247;-76
2022/09/27 04:53:32;;;;;;;0.10;0.10;;;;;;;;;;5058577;28;20207;-75
2022/09/27 04:56:00;;;;;;;0.10;0.10;;;;;;;;;;5046510;28;20261;-77
2022/09/27 04:58:26;;;;;;;0.10;0.10;;;;;;;;;;5059640;28;20235;-76
2022/09/27 05:00:53;;;;;;;0.10;0.10;;;;;;;;;;5044768;28;20236;-76
2022/09/27 05:03:20;;;;;;;0.10;0.10;;;;;;;;;;5061441;28;20206;-76
2022/09/27 05:05:46;;;;;;;0.10;0.10;;;;;;;;;;5043196;28;20276;-76
2022/09/27 05:08:16;;;;;;;0.10;0.10;;;;;;;;;;5062950;28;20208;-76
2022/09/27 05:10:43;;;;;;;0.10;0.10;;;;;;;;;;5041838;28;20429;-75
2022/09/27 05:13:09;;;;;;;0.10;0.10;;;;;;;;;;5064331;28;20278;-75
2022/09/27 05:15:36;;;;;;;0.10;0.10;;;;;;;;;;5040035;28;20243;-76
2022/09/27 05:18:02;;;;;;;0.10;0.10;;;;;;;;;;5065767;28;20251;-75
2022/09/27 05:20:28;;;;;;;0.10;0.10;;;;;;;;;;5037896;28;20314;-75
2022/09/27 05:22:55;;;;;;;0.10;0.10;;;;;;;;;;5068087;28;20281;-76
2022/09/27 05:25:23;;;;;;;0.10;0.10;;;;;;;;;;5036349;28;20234;-76
2022/09/27 05:27:50;;;;;;;0.10;0.10;;;;;;;;;;5069440;28;20277;-76
2022/09/27 05:30:16;;;;;;;0.10;0.10;;;;;;;;;;5034875;28;20205;-75
2022/09/27 05:32:44;;;;;;;0.10;0.10;;;;;;;;;;5070854;28;20379;-76
2022/09/27 05:35:10;;;;;;;0.10;0.10;;;;;;;;;;5032897;28;20223;-75
2022/09/27 05:37:37;;;;;;;0.10;0.10;;;;;;;;;;5072723;28;20205;-76
2022/09/27 05:40:06;;;;;;;0.10;0.10;;;;;;;;;;5041819;28;20205;-76
2022/09/27 05:42:34;;;;;;;0.10;0.10;;;;;;;;;;5030786;28;20534;-77
2022/09/27 05:45:01;;;;;;;0.10;0.10;;;;;;;;;;5042295;28;20234;-77
2022/09/27 05:47:27;;;;;;;0.10;0.10;;;;;;;;;;5064028;28;20510;-76
2022/09/27 05:49:54;;;;;;;0.10;0.10;;;;;;;;;;5041850;28;20212;-76
2022/09/27 05:52:21;;;;;;;0.10;0.10;;;;;;;;;;5063972;28;20583;-76
2022/09/27 05:54:47;;;;;;;0.10;0.10;;;;;;;;;;5042024;28;20205;-77
2022/09/27 05:57:14;;;;;;;0.10;0.10;;;;;;;;;;5063793;28;20262;-74
2022/09/27 05:59:41;;;;;;;0.10;0.10;;;;;;;;;;5042162;28;20235;-74
2022/09/27 06:02:09;;;;;;;0.10;0.10;;;;;;;;;;5064784;28;20246;-74
2022/09/27 06:04:35;;;;;;;0.10;0.10;;;;;;;;;;5046058;28;20533;-75
2022/09/27 06:07:04;;;;;;;0.10;0.10;;;;;;;;;;5065945;28;20242;-75
2022/09/27 06:09:30;;;;;;;0.10;0.10;;;;;;;;;;5046343;28;20206;-76
2022/09/27 06:11:56;;;;;;;0.10;0.10;;;;;;;;;;5064835;28;20259;-76
2022/09/27 06:14:23;;;;;;;0.10;0.10;;;;;;;;;;5047908;28;20206;-76
2022/09/27 06:16:53;;;;;;;0.10;0.10;;;;;;;;;;5062669;28;20249;-76
2022/09/27 06:19:20;;;;;;;0.10;0.10;;;;;;;;;;5048814;28;20210;-77
2022/09/27 06:21:48;;;;;;;0.10;0.10;;;;;;;;;;5061699;28;20301;-76
2022/09/27 06:24:15;;;;;;;0.10;0.10;;;;;;;;;;5049873;28;20226;-76
2022/09/27 06:26:44;;;;;;;0.10;0.10;;;;;;;;;;5060342;28;20255;-76
2022/09/27 06:29:10;;;;;;;0.10;0.10;;;;;;;;;;5051232;28;20204;-76
2022/09/27 06:31:36;;;;;;;0.10;0.10;;;;;;;;;;5059085;28;20315;-76
2022/09/27 06:34:04;;;;;;;0.10;0.10;;;;;;;;;;5052784;28;20237;-75
2022/09/27 06:36:32;;;;;;;0.10;0.10;;;;;;;;;;5057247;28;20459;-75
2022/09/27 06:39:00;;;;;;;0.10;0.10;;;;;;;;;;5054143;28;20227;-76
2022/09/27 06:41:26;;;;;;;0.10;0.10;;;;;;;;;;5056470;28;20610;-76
2022/09/27 06:43:53;;;;;;;0.10;0.10;;;;;;;;;;5055248;28;20427;-76
2022/09/27 06:46:19;;;;;;;0.10;0.10;;;;;;;;;;5054328;28;20369;-75
2022/09/27 06:48:46;;;;;;;0.10;0.10;;;;;;;;;;5057163;28;20277;-76
2022/09/27 06:51:14;;;;;;;0.10;0.10;;;;;;;;;;5052297;28;20513;-72
2022/09/27 06:53:40;;;;;;;0.10;0.10;;;;;;;;;;5058491;28;20210;-74
2022/09/27 06:56:07;;;;;;;0.10;0.10;;;;;;;;;;5050644;28;20325;-73
2022/09/27 07:01:17;;;;;;;0.10;0.10;;;;;;;;;;5053465;28;20247;-72
2022/09/27 07:03:43;;;;;;;0.10;0.10;;;;;;;;;;5057361;28;20204;-72
2022/09/27 07:06:19;;;;;;;0.10;0.10;;;;;;;;;;5051413;28;20241;-73
2022/09/27 07:08:49;;;;;;;0.10;0.10;;;;;;;;;;5056541;28;20293;-73
2022/09/27 07:11:16;;;;;;;0.10;0.10;;;;;;;;;;5053110;28;20246;-73
2022/09/27 07:13:42;;;;;;;0.10;0.10;;;;;;;;;;5057498;28;20206;-74
2022/09/27 07:16:11;;;;;;;0.10;0.10;;;;;;;;;;5051427;28;20302;-73
2022/09/27 07:18:38;;;;;;;0.10;0.10;;;;;;;;;;5058365;28;20492;-73
2022/09/27 07:21:04;;;;;;;0.10;0.10;;;;;;;;;;5050005;28;20290;-73
2022/09/27 07:23:31;;;;;;;0.10;0.10;;;;;;;;;;5059465;28;20206;-73
2022/09/27 07:26:03;;;;;;;0.10;0.10;;;;;;;;;;5047771;28;20243;-73
2022/09/27 07:28:29;;;;;;;0.10;0.10;;;;;;;;;;5060836;28;20214;-73
2022/09/27 07:30:56;;;;;;;0.10;0.10;;;;;;;;;;5047378;28;20243;-73
2022/09/27 07:33:23;;;;;;;0.10;0.10;;;;;;;;;;5062261;28;20232;-69
2022/09/27 07:35:49;;;;;;;0.10;0.10;;;;;;;;;;5045466;28;20455;-69
2022/09/27 07:38:16;;;;;;;0.10;0.10;;;;;;;;;;5063140;28;20205;-69
2022/09/27 07:40:43;;;;;;;0.10;0.10;;;;;;;;;;5043386;28;20283;-70
2022/09/27 07:43:11;;;;;;;0.10;0.10;;;;;;;;;;5065348;28;20207;-70
2022/09/27 07:45:37;;;;;;;0.10;0.10;;;;;;;;;;5042248;28;20266;-70
2022/09/27 07:48:04;;;;;;;0.10;0.10;;;;;;;;;;5067021;28;20238;-71
2022/09/27 07:50:30;;;;;;;0.10;0.10;;;;;;;;;;5040717;28;20552;-76
2022/09/27 07:52:57;;;;;;;0.10;0.10;;;;;;;;;;5068316;28;20268;-77
2022/09/27 07:55:24;;;;;;;0.10;0.10;;;;;;;;;;5038340;28;20208;-76
2022/09/27 07:57:50;;;;;;;0.10;0.10;;;;;;;;;;5069936;28;20231;-76
2022/09/27 08:00:20;;;;;;;0.10;0.10;;;;;;;;;;5036552;28;20206;-76
2022/09/27 08:02:47;;;;;;;0.10;0.10;;;;;;;;;;5071194;28;20212;-76
2022/09/27 08:05:14;;;;;;;0.10;0.10;;;;;;;;;;5035606;28;20288;-76
2022/09/27 08:07:40;;;;;;;0.10;0.10;;;;;;;;;;5073102;28;20261;-76
2022/09/27 08:10:08;;;;;;;0.10;0.10;;;;;;;;;;5033854;28;20234;-75
2022/09/27 08:12:34;;;;;;;0.10;0.10;;;;;;;;;;5074232;28;20506;-74
2022/09/27 08:15:03;;;;;;;0.10;0.10;;;;;;;;;;5043650;28;20206;-75
2022/09/27 08:17:31;;;;;;;0.10;0.10;;;;;;;;;;5032002;28;20226;-74
2022/09/27 08:19:59;;;;;;;0.10;0.10;;;;;;;;;;5043096;28;20265;-75
2022/09/27 08:22:25;;;;;;;0.10;0.10;;;;;;;;;;5065097;28;20246;-74
2022/09/27 08:24:51;;;;;;;0.10;0.10;;;;;;;;;;5042539;28;20244;-74
2022/09/27 08:27:18;;;;;;;0.10;0.10;;;;;;;;;;5065002;28;20248;-76
2022/09/27 08:29:44;;;;;;;0.10;0.10;;;;;;;;;;5043069;28;20232;-75
2022/09/27 08:32:11;;;;;;;0.10;0.10;;;;;;;;;;5064817;28;20243;-75
2022/09/27 08:34:40;;;;;;;0.10;0.10;;;;;;;;;;5043206;28;20280;-75
2022/09/27 08:37:07;;;;;;;0.10;0.10;;;;;;;;;;5064801;28;20313;-75
2022/09/27 08:39:33;;;;;;;0.10;0.10;;;;;;;;;;5043356;28;20276;-76
2022/09/27 08:42:02;;;;;;;0.10;0.10;;;;;;;;;;5063281;28;20457;-75
2022/09/27 08:44:34;;;;;;;0.10;0.10;;;;;;;;;;5043758;28;20217;-75
2022/09/27 08:47:02;;;;;;;0.10;0.10;;;;;;;;;;5063207;28;20304;-74
2022/09/27 08:49:33;;;;;;;0.10;0.10;;;;;;;;;;5043842;28;20205;-76
2022/09/27 08:52:04;;;;;;;0.10;0.10;;;;;;;;;;5062258;28;20480;-76
2022/09/27 08:54:31;;;;;;;0.10;0.10;;;;;;;;;;5044223;28;20238;-75
2022/09/27 08:57:02;;;;;;;0.10;0.10;;;;;;;;;;5067260;28;20276;-76
2022/09/27 08:59:30;;;;;;;0.10;0.10;;;;;;;;;;5043408;28;20311;-75
2022/09/27 09:01:56;;;;;;;0.10;0.10;;;;;;;;;;5062135;28;20315;-75
2022/09/27 09:04:28;;;;;;;0.10;0.10;;;;;;;;;;5045186;28;20277;-76
2022/09/27 09:06:58;;;;;;;0.10;0.10;;;;;;;;;;5061604;28;20538;-76
2022/09/27 09:09:32;;;;;;;0.10;0.10;;;;;;;;;;5044078;28;20268;-75
2022/09/27 09:14:50;;;;;;;0.10;0.10;;;;;;;;;;5042255;28;20333;-75
2022/09/27 09:17:23;;;;;;;0.10;0.10;;;;;;;;;;5064163;28;20232;-75
2022/09/27 09:19:59;;;;;;;0.10;0.10;;;;;;;;;;5042237;28;20265;-76
2022/09/27 09:22:33;;;;;;;0.10;0.10;;;;;;;;;;5063988;28;20245;-69
2022/09/27 09:25:14;;;;;;;0.10;0.10;;;;;;;;;;5042350;28;20185;-69
2022/09/27 09:27:46;;;;;;;0.10;0.10;;;;;;;;;;5041765;28;20198;-70
2022/09/27 09:30:19;;;;;;;0.10;0.10;;;;;;;;;;5033802;28;20265;-69
2022/09/27 09:32:51;;;;;;;0.10;0.10;;;;;;;;;;5070710;28;20448;-69
2022/09/27 09:35:32;;;;;;;0.10;0.10;;;;;;;;;;5035522;28;20288;-70
2022/09/27 09:38:00;;;;;;;0.10;0.10;;;;;;;;;;5069741;28;20274;-69
2022/09/27 09:40:31;;;;;;;0.10;0.10;;;;;;;;;;5041739;28;20250;-70
2022/09/27 09:43:00;;;;;;;0.30;0.30;;;;;;;;;;5071540;28;20423;-69
2022/09/27 09:45:29;;;;;;;0.10;0.10;;;;;;;;;;5041812;28;20277;-68
2022/09/27 09:47:59;;;;;;;0.10;0.10;;;;;;;;;;5071851;28;20510;-69
2022/09/27 09:50:44;;;;;;;0.10;0.10;;;;;;;;;;5041602;28;20253;-75
2022/09/27 09:53:13;;;;;;;0.10;0.10;;;;;;;;;;5067966;28;20212;-75
2022/09/27 09:55:43;;;;;;;0.10;0.10;;;;;;;;;;5045083;28;20245;-75
2022/09/27 09:58:17;;;;;;;0.10;0.10;;;;;;;;;;5068281;28;20586;-75
2022/09/27 10:00:44;;;;;;;0.10;0.10;;;;;;;;;;5046270;28;20450;-76
2022/09/27 10:03:10;;;;;;;0.10;0.10;;;;;;;;;;5067116;28;20225;-75
2022/09/27 10:05:37;;;;;;;0.10;0.10;;;;;;;;;;5044178;28;20247;-76
2022/09/27 10:08:05;;;;;;;0.10;0.10;;;;;;;;;;5069182;28;20264;-76
2022/09/27 10:10:31;;;;;;;0.10;0.10;;;;;;;;;;5042501;28;20249;-75
2022/09/27 10:13:02;;;;;;;0.10;0.10;;;;;;;;;;5070661;28;20527;-75
2022/09/27 10:15:29;;;;;;;0.17;0.17;;;;;;;;;;5041499;28;20324;-76
2022/09/27 10:17:56;;;;;;;0.10;0.10;;;;;;;;;;5070670;28;20233;-74
2022/09/27 10:20:29;;;;;;;0.10;0.10;;;;;;;;;;5039757;28;20243;-76
2022/09/27 10:22:59;;;;;;;0.10;0.10;;;;;;;;;;5071171;28;20466;-76
2022/09/27 10:25:26;;;;;;;0.10;0.10;;;;;;;;;;5040762;28;20262;-76
2022/09/27 10:27:54;;;;;;;0.10;0.10;;;;;;;;;;5071742;28;20202;-74
2022/09/27 10:30:25;;;;;;;0.10;0.10;;;;;;;;;;5039127;28;20563;-75
2022/09/27 10:32:53;;;;;;;0.10;0.10;;;;;;;;;;5070671;28;20215;-75
2022/09/27 10:35:20;;;;;;;0.10;0.10;;;;;;;;;;5037435;28;20215;-75
2022/09/27 10:37:46;;;;;;;0.10;0.10;;;;;;;;;;5071859;28;20228;-75
2022/09/27 10:40:24;;;;;;;0.10;0.10;;;;;;;;;;5035561;28;20242;-75
2022/09/27 10:42:50;;;;;;;0.10;0.10;;;;;;;;;;5071037;28;20204;-76
2022/09/27 10:45:30;;;;;;;0.10;0.10;;;;;;;;;;5035992;28;20240;-76
2022/09/27 10:47:57;;;;;;;0.00;0.00;;;;;;;;;;5069612;28;20269;-75
2022/09/27 10:50:25;;;;;;;0.10;0.10;;;;;;;;;;5038468;28;20205;-77
2022/09/27 10:53:01;;;;;;;0.10;0.10;;;;;;;;;;5070191;28;20441;-75
2022/09/27 10:55:28;;;;;;;0.10;0.10;;;;;;;;;;5039790;28;20250;-75
2022/09/27 10:57:55;;;;;;;0.10;0.10;;;;;;;;;;5069052;28;20473;-75
2022/09/27 11:00:23;;;;;;;0.10;0.10;;;;;;;;;;5037702;28;20397;-75
2022/09/27 11:02:53;;;;;;;0.10;0.10;;;;;;;;;;5070406;28;20213;-75
2022/09/27 11:05:30;;;;;;;0.10;0.10;;;;;;;;;;5037416;28;20252;-76
2022/09/27 11:07:57;;;;;;;0.10;0.10;;;;;;;;;;5068775;28;20208;-75
2022/09/27 11:10:26;;;;;;;0.10;0.10;;;;;;;;;;5038420;28;20233;-76
2022/09/27 11:13:11;;;;;;;0.10;0.10;;;;;;;;;;5069672;28;20207;-75
2022/09/27 11:15:45;;;;;;;0.10;0.10;;;;;;;;;;5041956;28;20324;-75
2022/09/27 11:18:20;;;;;;;0.10;0.10;;;;;;;;;;5064624;28;20287;-75
2022/09/27 11:20:51;;;;;;;0.10;0.10;;;;;;;;;;5044071;28;20239;-75
2022/09/27 11:23:25;;;;;;;0.10;0.10;;;;;;;;;;5062979;28;20229;-75
2022/09/27 11:25:58;;;;;;;0.10;0.10;;;;;;;;;;5045603;28;20312;-75
2022/09/27 11:28:31;;;;;;;0.10;0.10;;;;;;;;;;5061205;28;20295;-76
2022/09/27 11:31:02;;;;;;;0.10;0.10;;;;;;;;;;5007248;28;1145026;-76
2022/09/27 11:33:43;;;;;;;0.10;0.10;;;;;;;;;;5061339;28;20229;-75
2022/09/27 11:36:14;;;;;;;0.10;0.10;;;;;;;;;;5050956;28;20378;-75
2022/09/27 11:38:51;;;;;;;0.10;0.10;;;;;;;;;;5056705;28;20276;-74
2022/09/27 11:41:24;;;;;;;0.10;0.10;;;;;;;;;;5052252;28;20245;-76
2022/09/27 11:44:01;;;;;;;0.10;0.10;;;;;;;;;;5055023;28;20200;-75
2022/09/27 11:46:29;;;;;;;0.10;0.10;;;;;;;;;;5054300;28;20293;-75
2022/09/27 11:49:06;;;;;;;0.10;0.10;;;;;;;;;;5055305;28;20212;-75
2022/09/27 11:51:41;;;;;;;0.10;0.10;;;;;;;;;;5056772;28;20303;-73
2022/09/27 11:54:23;;;;;;;0.10;0.10;;;;;;;;;;5050564;28;20276;-75
2022/09/27 11:56:51;;;;;;;0.10;0.10;;;;;;;;;;5060566;28;20235;-74
2022/09/27 11:59:39;;;;;;;0.10;0.10;;;;;;;;;;5048009;28;20231;-74
2022/09/27 12:02:14;;;;;;;0.10;0.10;;;;;;;;;;5064827;28;20257;-75
2022/09/27 12:04:56;;;;;;;0.10;0.10;;;;;;;;;;5044285;28;20207;-74
2022/09/27 12:07:30;;;;;;;0.10;0.10;;;;;;;;;;5065390;28;20427;-74
2022/09/27 12:09:58;;;;;;;0.10;0.10;;;;;;;;;;5043468;28;20537;-74
2022/09/27 12:12:26;;;;;;;0.10;0.10;;;;;;;;;;5065362;28;20240;-73
2022/09/27 12:14:54;;;;;;;0.10;0.10;;;;;;;;;;5043367;28;20351;-75
2022/09/27 12:17:23;;;;;;;0.10;0.10;;;;;;;;;;5064965;28;20283;-74
2022/09/27 12:19:52;;;;;;;0.10;0.10;;;;;;;;;;5043508;28;20378;-75
2022/09/27 12:22:21;;;;;;;0.10;0.10;;;;;;;;;;5065575;28;20241;-74
2022/09/27 12:24:48;;;;;;;0.10;0.10;;;;;;;;;;5043295;28;20517;-74
2022/09/27 12:27:16;;;;;;;0.10;0.10;;;;;;;;;;5065301;28;20243;-75
2022/09/27 12:29:45;;;;;;;0.10;0.10;;;;;;;;;;5042951;28;20228;-75
2022/09/27 12:32:15;;;;;;;0.10;0.10;;;;;;;;;;5064775;28;20298;-74
2022/09/27 12:34:44;;;;;;;0.10;0.10;;;;;;;;;;5043377;28;20233;-74
2022/09/27 12:37:15;;;;;;;0.10;0.10;;;;;;;;;;5064755;28;20242;-75
2022/09/27 12:39:45;;;;;;;0.10;0.10;;;;;;;;;;5043148;28;20212;-71
2022/09/27 12:42:14;;;;;;;0.10;0.10;;;;;;;;;;5064787;28;20236;-72
2022/09/27 12:44:41;;;;;;;0.10;0.10;;;;;;;;;;5043300;28;20286;-72
2022/09/27 12:47:13;;;;;;;0.10;0.10;;;;;;;;;;5064709;28;20261;-73
2022/09/27 12:49:48;;;;;;;0.10;0.10;;;;;;;;;;5043158;28;20206;-72
2022/09/27 12:52:24;;;;;;;0.10;0.10;;;;;;;;;;5064637;28;20246;-72
2022/09/27 12:54:59;;;;;;;0.10;0.10;;;;;;;;;;5042984;28;20195;-72
2022/09/27 12:57:31;;;;;;;0.10;0.10;;;;;;;;;;5064360;28;20436;-72
2022/09/27 13:00:06;;;;;;;0.00;0.00;;;;;;;;;;5042487;28;20403;-70
2022/09/27 13:02:50;;;;;;;0.10;0.10;;;;;;;;;;5031187;28;20208;-72
2022/09/27 13:05:32;;;;;;;0.10;0.10;;;;;;;;;;5035596;28;20495;-71
2022/09/27 13:08:04;;;;;;;0.10;0.10;;;;;;;;;;5067115;28;20208;-71
2022/09/27 13:10:41;;;;;;;0.10;0.10;;;;;;;;;;5039264;28;20592;-73
2022/09/27 13:13:10;;;;;;;0.10;0.10;;;;;;;;;;5064853;28;20207;-72
2022/09/27 13:15:38;;;;;;;0.10;0.10;;;;;;;;;;5040854;28;20299;-72
2022/09/27 13:18:06;;;;;;;0.10;0.10;;;;;;;;;;5065365;28;20225;-71
2022/09/27 13:20:38;;;;;;;0.10;0.10;;;;;;;;;;5038963;28;20258;-71
2022/09/27 13:23:28;;;;;;;0.10;0.10;;;;;;;;;;5066412;28;20207;-71
2022/09/27 13:25:56;;;;;;;0.10;0.10;;;;;;;;;;5045890;28;20462;-72
2022/09/27 13:28:31;;;;;;;0.10;0.10;;;;;;;;;;5060350;28;20198;-72
2022/09/27 13:30:59;;;;;;;0.10;0.10;;;;;;;;;;5046112;28;20446;-73
2022/09/27 13:33:44;;;;;;;0.10;0.10;;;;;;;;;;5060000;28;20214;-72
2022/09/27 13:36:19;;;;;;;0.10;0.10;;;;;;;;;;5049694;28;20318;-71
2022/09/27 13:39:00;;;;;;;0.00;0.00;;;;;;;;;;5054350;28;20235;-71
2022/09/27 13:41:28;;;;;;;0.10;0.10;;;;;;;;;;5053653;28;20239;-72
2022/09/27 13:44:03;;;;;;;0.10;0.10;;;;;;;;;;5052150;28;20214;-72
2022/09/27 13:46:31;;;;;;;0.00;0.00;;;;;;;;;;5054787;28;20293;-72
2022/09/27 13:48:58;;;;;;;0.10;0.10;;;;;;;;;;5051440;28;20277;-72
2022/09/27 13:51:31;;;;;;;0.10;0.10;;;;;;;;;;5053246;28;20309;-72
2022/09/27 13:53:59;;;;;;;0.10;0.10;;;;;;;;;;5051434;28;20208;-71
2022/09/27 13:56:45;;;;;;;0.10;0.10;;;;;;;;;;5051296;28;20253;-72
2022/09/27 13:59:13;;;;;;;0.10;0.10;;;;;;;;;;5047359;28;20259;-71
2022/09/27 14:01:41;;;;;;;0.10;0.10;;;;;;;;;;5057076;28;20245;-72
2022/09/27 14:04:13;;;;;;;0.10;0.10;;;;;;;;;;5048784;28;20225;-72
2022/09/27 14:06:45;;;;;;;0.10;0.10;;;;;;;;;;5056907;28;20239;-72
2022/09/27 14:09:18;;;;;;;0.10;0.10;;;;;;;;;;5047376;28;20213;-72
2022/09/27 14:11:49;;;;;;;0.10;0.10;;;;;;;;;;5058007;28;20546;-72
2022/09/27 14:14:17;;;;;;;0.10;0.10;;;;;;;;;;5046312;28;20278;-72
2022/09/27 14:16:46;;;;;;;0.10;0.10;;;;;;;;;;5057867;28;20554;-72
2022/09/27 14:19:14;;;;;;;0.10;0.10;;;;;;;;;;5047006;28;20474;-72
2022/09/27 14:21:44;;;;;;;0.10;0.10;;;;;;;;;;5057134;28;20288;-73
2022/09/27 14:24:29;;;;;;;0.10;0.10;;;;;;;;;;5050029;28;20208;-72
2022/09/27 14:27:11;;;;;;;0.10;0.10;;;;;;;;;;5064791;28;20319;-71
2022/09/27 14:29:40;;;;;;;0.10;0.10;;;;;;;;;;5045942;28;20217;-72
2022/09/27 14:32:10;;;;;;;0.10;0.10;;;;;;;;;;5067282;28;20255;-72
2022/09/27 14:34:36;;;;;;;0.10;0.10;;;;;;;;;;5045074;28;20208;-72
2022/09/27 14:39:54;;;;;;;0.10;0.10;;;;;;;;;;5045195;28;20228;-72
2022/09/27 14:42:21;;;;;;;0.10;0.10;;;;;;;;;;5067201;28;20260;-73
2022/09/27 14:44:48;;;;;;;0.10;0.10;;;;;;;;;;5045104;28;20211;-73
2022/09/27 14:47:17;;;;;;;0.10;0.10;;;;;;;;;;5067262;28;20237;-73
2022/09/27 14:49:47;;;;;;;0.10;0.10;;;;;;;;;;5044917;28;20217;-72
2022/09/27 14:52:16;;;;;;;0.10;0.10;;;;;;;;;;5066735;28;20463;-72
2022/09/27 14:54:43;;;;;;;0.10;0.10;;;;;;;;;;5044664;28;20205;-74
2022/09/27 14:57:13;;;;;;;0.10;0.10;;;;;;;;;;5066491;28;20240;-70
2022/09/27 14:59:44;;;;;;;0.10;0.10;;;;;;;;;;5044946;28;20308;-70
2022/09/27 15:02:17;;;;;;;0.10;0.10;;;;;;;;;;5066416;28;20413;-70
2022/09/27 15:04:46;;;;;;;0.10;0.10;;;;;;;;;;5044465;28;20200;-70